createdAt,value
2019-01-17T00:00:52.137Z,99154.42
2019-01-17T00:03:32.566Z,99155.05
2019-01-17T00:06:21.043Z,99159.48
2019-01-17T00:09:18.443Z,99156.41
2019-01-17T00:12:05.331Z,99166.34
2019-01-17T00:15:09.017Z,99164.80
2019-01-17T00:18:12.564Z,99158.27
2019-01-17T00:21:03.585Z,99166.16
2019-01-17T00:24:02.572Z,99157.91
2019-01-17T00:26:48.584Z,99160.06
2019-01-17T00:29:35.868Z,99166.11
2019-01-17T00:32:39.320Z,99171.84
2019-01-17T00:35:37.689Z,99175.22
2019-01-17T00:38:17.142Z,99168.64
2019-01-17T00:41:16.423Z,99178.08
2019-01-17T00:44:23.130Z,99178.52
2019-01-17T00:47:01.442Z,99180.06
2019-01-17T00:49:40.474Z,99180.20
2019-01-17T00:52:27.413Z,99176.47
2019-01-17T00:55:15.863Z,99173.11
2019-01-17T00:58:51.470Z,99176.70
2019-01-17T01:01:40.038Z,99181.77
2019-01-17T01:04:28.559Z,99178.31
2019-01-17T01:07:29.047Z,99178.11
2019-01-17T01:10:15.951Z,99177.63
2019-01-17T01:13:13.431Z,99177.35
2019-01-17T01:16:13.015Z,99170.05
2019-01-17T01:19:01.469Z,99163.83
2019-01-17T01:21:56.155Z,99167.50
2019-01-17T01:24:50.396Z,99164.84
2019-01-17T01:27:44.664Z,99163.79
2019-01-17T01:30:37.218Z,99166.01
2019-01-17T01:33:30.220Z,99161.31
2019-01-17T01:36:24.524Z,99164.33
2019-01-17T01:39:15.765Z,99158.95
2019-01-17T01:42:13.392Z,99154.88
2019-01-17T01:45:00.159Z,99157.18
2019-01-17T01:47:47.288Z,99157.73
2019-01-17T01:50:41.904Z,99165.02
2019-01-17T01:53:11.596Z,99146.11
2019-01-17T01:55:41.175Z,99147.95
2019-01-17T01:58:10.871Z,99149.62
2019-01-17T02:00:40.652Z,99141.75
2019-01-17T02:03:10.227Z,99145.59
2019-01-17T02:05:39.857Z,99144.55
2019-01-17T02:08:09.572Z,99148.39
2019-01-17T02:10:39.648Z,99147.00
2019-01-17T02:13:09.312Z,99144.77
2019-01-17T02:15:38.870Z,99139.98
2019-01-17T02:18:08.432Z,99140.49
2019-01-17T02:20:40.903Z,99144.66
2019-01-17T02:23:10.505Z,99140.88
2019-01-17T02:25:40.087Z,99145.42
2019-01-17T02:28:09.868Z,99136.53
2019-01-17T02:30:42.021Z,99132.89
2019-01-17T02:33:11.575Z,99136.00
2019-01-17T02:35:41.278Z,99135.17
2019-01-17T02:38:10.862Z,99149.25
2019-01-17T02:40:40.494Z,99159.94
2019-01-17T02:43:10.145Z,99159.27
2019-01-17T02:45:39.739Z,99148.92
2019-01-17T02:48:09.299Z,99160.41
2019-01-17T02:50:38.926Z,99155.62
2019-01-17T02:53:10.603Z,99168.09
2019-01-17T02:55:40.199Z,99160.58
2019-01-17T02:58:10.014Z,99164.33
2019-01-17T03:00:39.613Z,99170.23
2019-01-17T03:03:09.190Z,99175.11
2019-01-17T03:05:38.875Z,99171.58
2019-01-17T03:08:08.674Z,99174.23
2019-01-17T03:10:38.249Z,99171.56
2019-01-17T03:13:07.946Z,99170.91
2019-01-17T03:15:37.535Z,99178.44
2019-01-17T03:18:07.092Z,99172.80
2019-01-17T03:20:36.800Z,99172.52
2019-01-17T03:23:06.478Z,99175.61
2019-01-17T03:25:36.064Z,99183.28
2019-01-17T03:28:05.862Z,99175.06
2019-01-17T03:30:35.472Z,99177.99
2019-01-17T03:33:05.131Z,99168.19
2019-01-17T03:35:34.851Z,99167.75
2019-01-17T03:38:04.525Z,99167.28
2019-01-17T03:40:34.073Z,99161.80
2019-01-17T03:43:03.683Z,99168.56
2019-01-17T03:45:33.236Z,99163.36
2019-01-17T03:48:02.790Z,99159.81
2019-01-17T03:50:32.393Z,99154.70
2019-01-17T03:53:01.954Z,99164.19
2019-01-17T03:55:31.796Z,99162.33
2019-01-17T03:58:01.498Z,99161.69
2019-01-17T04:00:31.143Z,99162.41
2019-01-17T04:03:00.715Z,99156.83
2019-01-17T04:05:34.436Z,99152.72
2019-01-17T04:08:04.096Z,99152.91
2019-01-17T04:10:33.663Z,99144.59
2019-01-17T04:13:03.310Z,99149.75
2019-01-17T04:15:33.013Z,99150.39
2019-01-17T04:18:02.548Z,99145.88
2019-01-17T04:20:32.255Z,99136.48
2019-01-17T04:23:01.829Z,99130.06
2019-01-17T04:25:31.443Z,99128.13
2019-01-17T04:28:01.060Z,99136.84
2019-01-17T04:30:32.024Z,99143.89
2019-01-17T04:33:01.601Z,99150.53
2019-01-17T04:35:31.285Z,99146.23
2019-01-17T04:38:00.894Z,99148.98
2019-01-17T04:40:30.526Z,99149.23
2019-01-17T04:43:00.170Z,99155.72
2019-01-17T04:45:29.728Z,99162.38
2019-01-17T04:47:59.336Z,99178.70
2019-01-17T04:50:30.015Z,99183.14
2019-01-17T04:52:59.558Z,99185.25
2019-01-17T04:55:29.123Z,99182.12
2019-01-17T04:57:58.829Z,99166.53
2019-01-17T05:00:28.520Z,99167.48
2019-01-17T05:02:58.224Z,99158.23
2019-01-17T05:05:27.856Z,99159.26
2019-01-17T05:07:57.454Z,99162.13
2019-01-17T05:10:27.032Z,99169.16
2019-01-17T05:12:56.661Z,99163.33
2019-01-17T05:15:26.237Z,99170.64
2019-01-17T05:17:55.804Z,99177.66
2019-01-17T05:20:25.734Z,99174.61
2019-01-17T05:22:55.310Z,99177.09
2019-01-17T05:25:25.105Z,99188.86
2019-01-17T05:27:54.784Z,99183.89
2019-01-17T05:30:24.660Z,99178.31
2019-01-17T05:32:54.251Z,99178.59
2019-01-17T05:35:23.906Z,99180.85
2019-01-17T05:37:53.496Z,99183.26
2019-01-17T05:40:23.083Z,99186.42
2019-01-17T05:42:52.723Z,99190.14
2019-01-17T05:45:22.293Z,99198.03
2019-01-17T05:47:51.922Z,99187.44
2019-01-17T05:50:21.582Z,99191.16
2019-01-17T05:52:51.881Z,99179.50
2019-01-17T05:55:21.543Z,99186.66
2019-01-17T05:57:55.195Z,99196.86
2019-01-17T06:00:24.872Z,99188.41
2019-01-17T06:02:54.515Z,99197.53
2019-01-17T06:05:24.112Z,99199.06
2019-01-17T06:07:53.714Z,99205.26
2019-01-17T06:10:23.335Z,99202.70
2019-01-17T06:12:53.908Z,99201.80
2019-01-17T06:15:24.538Z,99210.05
2019-01-17T06:17:54.139Z,99206.23
2019-01-17T06:20:23.875Z,99207.66
2019-01-17T06:22:53.543Z,99223.15
2019-01-17T06:25:27.987Z,99221.59
2019-01-17T06:27:55.515Z,99218.72
2019-01-17T06:30:25.170Z,99223.02
2019-01-17T06:32:54.867Z,99218.42
2019-01-17T06:35:24.472Z,99220.36
2019-01-17T06:37:57.204Z,99222.20
2019-01-17T06:40:32.137Z,99217.00
2019-01-17T06:43:01.758Z,99215.26
2019-01-17T06:45:31.339Z,99216.66
2019-01-17T06:48:00.997Z,99215.86
2019-01-17T06:50:30.631Z,99217.30
2019-01-17T06:53:00.474Z,99222.06
2019-01-17T06:55:34.455Z,99223.86
2019-01-17T06:58:01.651Z,99224.94
2019-01-17T07:00:34.034Z,99231.45
2019-01-17T07:03:03.731Z,99236.31
2019-01-17T07:05:33.410Z,99241.48
2019-01-17T07:08:03.006Z,99234.18
2019-01-17T07:10:32.822Z,99239.77
2019-01-17T07:13:02.436Z,99240.58
2019-01-17T07:15:32.543Z,99237.66
2019-01-17T07:18:02.269Z,99249.42
2019-01-17T07:20:31.904Z,99253.95
2019-01-17T07:23:01.914Z,99251.77
2019-01-17T07:25:31.706Z,99252.78
2019-01-17T07:28:01.322Z,99251.98
2019-01-17T07:30:30.971Z,99253.48
2019-01-17T07:33:00.729Z,99264.94
2019-01-17T07:35:30.338Z,99274.12
2019-01-17T07:37:59.934Z,99275.27
2019-01-17T07:40:31.550Z,99282.22
2019-01-17T07:43:01.152Z,99278.41
2019-01-17T07:45:31.372Z,99283.83
2019-01-17T07:48:01.100Z,99286.61
2019-01-17T07:50:31.140Z,99287.06
2019-01-17T07:53:00.833Z,99287.52
2019-01-17T07:55:30.999Z,99292.06
2019-01-17T07:58:00.592Z,99301.02
2019-01-17T08:00:30.354Z,99304.30
2019-01-17T08:03:00.002Z,99298.62
2019-01-17T08:05:29.578Z,99301.67
2019-01-17T08:07:59.151Z,99298.44
2019-01-17T08:10:28.770Z,99294.48
2019-01-17T08:12:58.339Z,99296.47
2019-01-17T08:15:27.940Z,99302.18
2019-01-17T08:17:57.567Z,99306.13
2019-01-17T08:20:27.163Z,99293.55
2019-01-17T08:22:56.880Z,99289.94
2019-01-17T08:25:26.611Z,99293.95
2019-01-17T08:27:56.252Z,99292.48
2019-01-17T08:30:27.769Z,99294.83
2019-01-17T08:32:57.416Z,99293.40
2019-01-17T08:35:27.161Z,99296.19
2019-01-17T08:37:56.820Z,99300.59
2019-01-17T08:40:31.807Z,99299.94
2019-01-17T08:43:01.431Z,99300.96
2019-01-17T08:45:31.006Z,99300.13
2019-01-17T08:48:00.900Z,99302.66
2019-01-17T08:50:30.597Z,99304.68
2019-01-17T08:53:00.179Z,99302.27
2019-01-17T08:58:13.188Z,99300.55
2019-01-17T09:00:42.828Z,99308.11
2019-01-17T09:03:12.660Z,99301.88
2019-01-17T09:05:42.434Z,99302.20
2019-01-17T09:08:12.189Z,99299.06
2019-01-17T09:10:41.886Z,99297.05
2019-01-17T09:13:11.485Z,99289.50
2019-01-17T09:15:42.714Z,99293.45
2019-01-17T09:18:12.504Z,99283.70
2019-01-17T09:20:42.989Z,99289.09
2019-01-17T09:23:15.983Z,99284.33
2019-01-17T09:25:46.549Z,99278.87
2019-01-17T09:28:16.189Z,99281.42
2019-01-17T09:30:45.874Z,99278.52
2019-01-17T09:33:15.963Z,99283.57
2019-01-17T09:35:45.577Z,99277.65
2019-01-17T09:38:15.240Z,99265.13
2019-01-17T09:40:45.249Z,99271.23
2019-01-17T09:43:14.839Z,99273.20
2019-01-17T09:45:44.497Z,99265.41
2019-01-17T09:48:14.195Z,99267.16
2019-01-17T09:50:43.781Z,99265.98
2019-01-17T09:53:13.440Z,99262.67
2019-01-17T09:55:43.081Z,99258.41
2019-01-17T09:58:12.702Z,99257.11
2019-01-17T10:00:42.412Z,99252.45
2019-01-17T10:03:11.976Z,99249.47
2019-01-17T10:05:41.552Z,99253.36
2019-01-17T10:08:11.214Z,99239.59
2019-01-17T10:10:41.740Z,99240.80
2019-01-17T10:13:11.947Z,99232.41
2019-01-17T10:16:11.692Z,99223.14
2019-01-17T10:19:16.179Z,99222.45
2019-01-17T10:22:23.146Z,99215.93
2019-01-17T10:25:19.033Z,99208.14
2019-01-17T10:28:24.948Z,99213.36
2019-01-17T10:31:42.197Z,99207.50
2019-01-17T10:34:35.905Z,99205.17
2019-01-17T10:37:45.356Z,99204.61
2019-01-17T10:41:08.101Z,99197.66
2019-01-17T10:44:18.674Z,99201.36
2019-01-17T10:47:40.624Z,99189.86
2019-01-17T10:50:49.209Z,99184.54
2019-01-17T10:54:14.711Z,99177.13
2019-01-17T10:57:03.975Z,99174.58
2019-01-17T11:00:23.249Z,99169.94
2019-01-17T11:03:31.920Z,99166.15
2019-01-17T11:06:45.432Z,99163.08
2019-01-17T11:09:48.401Z,99150.21
2019-01-17T11:12:38.578Z,99144.41
2019-01-17T11:18:44.945Z,99133.80
2019-01-17T11:21:53.719Z,99132.67
2019-01-17T11:25:05.201Z,99125.13
2019-01-17T11:28:09.478Z,99121.16
2019-01-17T11:31:38.138Z,99119.38
2019-01-17T11:34:38.103Z,99110.56
2019-01-17T11:37:40.564Z,99103.33
2019-01-17T11:40:32.190Z,99100.27
2019-01-17T11:43:48.249Z,99094.78
2019-01-17T11:47:04.970Z,99091.25
2019-01-17T11:50:04.119Z,99091.14
2019-01-17T11:53:25.080Z,99087.91
2019-01-17T11:56:30.348Z,99085.80
2019-01-17T11:59:52.831Z,99078.45
2019-01-17T12:02:48.139Z,99079.52
2019-01-17T12:05:17.840Z,99077.04
2019-01-17T12:07:47.830Z,99073.22
2019-01-17T12:10:17.407Z,99069.22
2019-01-17T12:12:47.505Z,99069.53
2019-01-17T12:15:17.152Z,99068.25
2019-01-17T12:17:46.797Z,99057.51
2019-01-17T12:20:16.562Z,99063.98
2019-01-17T12:22:48.427Z,99062.36
2019-01-17T12:25:18.020Z,99060.91
2019-01-17T12:27:47.793Z,99061.81
2019-01-17T12:30:17.438Z,99056.27
2019-01-17T12:32:47.110Z,99054.66
2019-01-17T12:35:16.774Z,99054.61
2019-01-17T12:37:46.380Z,99056.04
2019-01-17T12:40:16.354Z,99058.21
2019-01-17T12:42:46.140Z,99050.84
2019-01-17T12:45:16.599Z,99048.96
2019-01-17T12:47:46.224Z,99056.35
2019-01-17T12:50:18.332Z,99048.47
2019-01-17T12:52:47.916Z,99048.14
2019-01-17T12:55:18.101Z,99045.77
2019-01-17T12:57:54.514Z,99047.83
2019-01-17T13:00:24.024Z,99044.50
2019-01-17T13:02:55.207Z,99040.34
2019-01-17T13:05:25.055Z,99038.47
2019-01-17T13:07:54.706Z,99042.92
2019-01-17T13:10:24.277Z,99038.23
2019-01-17T13:12:54.118Z,99046.98
2019-01-17T13:15:23.740Z,99039.36
2019-01-17T13:17:53.440Z,99040.56
2019-01-17T13:20:25.153Z,99032.50
2019-01-17T13:22:56.066Z,99028.02
2019-01-17T13:25:25.699Z,99026.97
2019-01-17T13:27:55.356Z,99028.32
2019-01-17T13:30:25.320Z,99026.48
2019-01-17T13:32:55.812Z,99027.09
2019-01-17T13:35:34.816Z,99026.44
2019-01-17T13:38:07.553Z,99028.38
2019-01-17T13:40:37.137Z,99018.97
2019-01-17T13:43:07.014Z,99022.28
2019-01-17T13:45:36.605Z,99022.08
2019-01-17T13:48:06.511Z,99026.03
2019-01-17T13:53:14.465Z,99018.75
2019-01-17T13:55:44.065Z,99018.23
2019-01-17T13:58:13.734Z,99019.45
2019-01-17T14:00:43.369Z,99023.56
2019-01-17T14:03:13.010Z,99019.47
2019-01-17T14:05:42.717Z,99020.98
2019-01-17T14:08:12.315Z,99019.30
2019-01-17T14:10:41.966Z,99017.55
2019-01-17T14:13:11.704Z,99016.77
2019-01-17T14:15:41.705Z,99014.41
2019-01-17T14:18:11.281Z,99017.34
2019-01-17T14:20:40.944Z,99017.98
2019-01-17T14:23:10.607Z,99017.79
2019-01-17T14:25:40.223Z,99019.35
2019-01-17T14:28:10.013Z,99016.80
2019-01-17T14:30:41.068Z,99013.18
2019-01-17T14:33:10.906Z,99014.31
2019-01-17T14:35:40.817Z,99010.31
2019-01-17T14:38:10.519Z,99012.15
2019-01-17T14:40:40.167Z,99008.20
2019-01-17T14:43:09.850Z,99010.21
2019-01-17T14:45:39.488Z,99019.30
2019-01-17T14:48:09.112Z,99014.72
2019-01-17T14:50:38.788Z,99021.33
2019-01-17T14:53:08.448Z,99020.94
2019-01-17T14:55:38.436Z,99014.58
2019-01-17T14:58:08.159Z,99025.69
2019-01-17T15:00:37.801Z,99017.51
2019-01-17T15:03:07.447Z,99028.33
2019-01-17T15:08:12.807Z,99024.27
2019-01-17T15:10:43.707Z,99023.30
2019-01-17T15:13:13.389Z,99024.83
2019-01-17T15:15:46.277Z,99026.79
2019-01-17T15:18:17.301Z,99024.39
2019-01-17T15:20:53.062Z,99020.09
2019-01-17T15:23:22.856Z,99017.77
2019-01-17T15:25:52.510Z,99022.78
2019-01-17T15:28:22.160Z,99025.82
2019-01-17T15:30:51.921Z,99031.89
2019-01-17T15:33:21.515Z,99022.45
2019-01-17T15:35:51.204Z,99027.41
2019-01-17T15:38:20.985Z,99028.50
2019-01-17T15:40:50.645Z,99027.72
2019-01-17T15:43:20.315Z,99030.86
2019-01-17T15:48:25.987Z,99041.68
2019-01-17T15:50:55.800Z,99043.56
2019-01-17T15:53:25.479Z,99047.29
2019-01-17T15:55:55.085Z,99044.56
2019-01-17T15:58:24.765Z,99051.97
2019-01-17T16:00:56.100Z,99042.34
2019-01-17T16:03:25.725Z,99047.20
2019-01-17T16:05:55.450Z,99044.37
2019-01-17T16:08:25.110Z,99048.58
2019-01-17T16:10:54.739Z,99052.29
2019-01-17T16:13:33.459Z,99053.67
2019-01-17T16:16:03.528Z,99054.84
2019-01-17T16:18:33.208Z,99061.04
2019-01-17T16:21:02.952Z,99062.89
2019-01-17T16:23:32.603Z,99069.59
2019-01-17T16:26:02.311Z,99069.95
2019-01-17T16:28:32.146Z,99069.95
2019-01-17T16:31:02.774Z,99071.13
2019-01-17T16:33:33.913Z,99072.15
2019-01-17T16:36:04.037Z,99074.64
2019-01-17T16:38:33.715Z,99073.97
2019-01-17T16:41:03.380Z,99073.30
2019-01-17T16:43:33.097Z,99078.17
2019-01-17T16:46:03.821Z,99074.13
2019-01-17T16:48:33.511Z,99078.15
2019-01-17T16:51:03.281Z,99080.96
2019-01-17T16:53:32.905Z,99071.41
2019-01-17T16:56:02.533Z,99066.72
2019-01-17T16:58:32.324Z,99064.33
2019-01-17T17:01:01.949Z,99072.05
2019-01-17T17:03:31.599Z,99068.02
2019-01-17T17:06:01.532Z,99065.89
2019-01-17T17:08:31.268Z,99065.33
2019-01-17T17:11:00.873Z,99068.22
2019-01-17T17:13:30.666Z,99066.09
2019-01-17T17:16:00.310Z,99065.73
2019-01-17T17:18:29.926Z,99069.41
2019-01-17T17:20:59.641Z,99069.24
2019-01-17T17:23:35.696Z,99066.09
2019-01-17T17:26:11.555Z,99068.28
2019-01-17T17:28:41.218Z,99065.95
2019-01-17T17:31:10.861Z,99071.47
2019-01-17T17:33:40.594Z,99065.59
2019-01-17T17:36:11.478Z,99071.63
2019-01-17T17:38:41.101Z,99070.83
2019-01-17T17:41:10.860Z,99078.34
2019-01-17T17:43:40.472Z,99079.82
2019-01-17T17:46:10.524Z,99079.67
2019-01-17T17:48:40.175Z,99080.33
2019-01-17T17:51:09.804Z,99076.16
2019-01-17T17:53:39.453Z,99082.52
2019-01-17T17:56:10.477Z,99073.98
2019-01-17T17:58:40.110Z,99084.89
2019-01-17T18:01:29.042Z,99087.05
2019-01-17T18:03:58.661Z,99091.58
2019-01-17T18:06:28.292Z,99095.44
2019-01-17T18:08:58.092Z,99099.27
2019-01-17T18:11:27.744Z,99097.88
2019-01-17T18:13:57.385Z,99094.99
2019-01-17T18:16:27.059Z,99100.50
2019-01-17T18:18:56.689Z,99098.64
2019-01-17T18:21:26.338Z,99100.83
2019-01-17T18:23:56.516Z,99099.45
2019-01-17T18:26:26.138Z,99099.47
2019-01-17T18:28:55.757Z,99099.33
2019-01-17T18:31:25.512Z,99094.08
2019-01-17T18:33:55.452Z,99095.38
2019-01-17T18:36:25.709Z,99096.69
2019-01-17T18:38:55.405Z,99098.31
2019-01-17T18:41:25.023Z,99098.45
2019-01-17T18:43:54.767Z,99099.45
2019-01-17T18:46:24.504Z,99095.84
2019-01-17T18:48:54.188Z,99105.41
2019-01-17T18:51:23.962Z,99101.20
2019-01-17T18:53:53.650Z,99106.55
2019-01-17T18:56:23.286Z,99113.25
2019-01-17T18:58:52.986Z,99111.09
2019-01-17T19:01:22.780Z,99107.44
2019-01-17T19:03:52.537Z,99115.74
2019-01-17T19:06:22.174Z,99120.88
2019-01-17T19:08:58.895Z,99134.30
2019-01-17T19:11:28.557Z,99129.66
2019-01-17T19:13:58.295Z,99138.99
2019-01-17T19:16:27.989Z,99136.67
2019-01-17T19:18:57.659Z,99142.11
2019-01-17T19:21:27.333Z,99140.70
2019-01-17T19:23:57.034Z,99140.45
2019-01-17T19:26:26.737Z,99142.41
2019-01-17T19:28:56.442Z,99137.83
2019-01-17T19:31:26.242Z,99132.20
2019-01-17T19:33:56.047Z,99139.02
2019-01-17T19:36:25.759Z,99144.44
2019-01-17T19:38:55.563Z,99146.25
2019-01-17T19:41:25.243Z,99140.06
2019-01-17T19:43:54.871Z,99142.86
2019-01-17T19:46:24.533Z,99144.20
2019-01-17T19:48:54.427Z,99143.95
2019-01-17T19:51:24.296Z,99145.94
2019-01-17T19:53:53.968Z,99147.37
2019-01-17T19:56:23.621Z,99150.29
2019-01-17T19:58:53.284Z,99155.02
2019-01-17T20:01:23.091Z,99159.44
2019-01-17T20:03:52.789Z,99161.05
2019-01-17T20:06:25.200Z,99154.48
2019-01-17T20:09:12.656Z,99160.55
2019-01-17T20:12:07.039Z,99164.50
2019-01-17T20:14:41.210Z,99156.45
2019-01-17T20:17:11.061Z,99156.77
2019-01-17T20:19:40.702Z,99150.81
2019-01-17T20:22:10.503Z,99163.76
2019-01-17T20:24:40.152Z,99154.67
2019-01-17T20:27:09.783Z,99156.75
2019-01-17T20:29:39.469Z,99160.81
2019-01-17T20:32:09.067Z,99160.71
2019-01-17T20:34:38.738Z,99159.84
2019-01-17T20:37:08.542Z,99156.98
2019-01-17T20:39:38.138Z,99152.62
2019-01-17T20:42:07.847Z,99155.73
2019-01-17T20:44:37.522Z,99155.63
2019-01-17T20:47:07.153Z,99154.48
2019-01-17T20:49:36.790Z,99161.18
2019-01-17T20:52:06.500Z,99160.95
2019-01-17T20:54:36.098Z,99160.91
2019-01-17T20:57:07.336Z,99163.11
2019-01-17T20:59:37.003Z,99160.25
2019-01-17T21:02:18.798Z,99156.69
2019-01-17T21:04:48.691Z,99156.45
2019-01-17T21:07:18.328Z,99152.69
2019-01-17T21:09:47.934Z,99158.28
2019-01-17T21:12:17.730Z,99157.25
2019-01-17T21:14:47.363Z,99156.69
2019-01-17T21:17:17.002Z,99157.81
2019-01-17T21:19:46.647Z,99151.34
2019-01-17T21:22:18.605Z,99160.11
2019-01-17T21:24:50.424Z,99156.81
2019-01-17T21:27:25.400Z,99158.77
2019-01-17T21:30:01.987Z,99154.36
2019-01-17T21:32:31.726Z,99161.97
2019-01-17T21:35:01.413Z,99154.08
2019-01-17T21:37:43.104Z,99149.58
2019-01-17T21:40:15.278Z,99146.92
2019-01-17T21:42:44.941Z,99153.75
2019-01-17T21:45:16.546Z,99152.34
2019-01-17T21:47:46.318Z,99144.66
2019-01-17T21:50:21.360Z,99142.95
2019-01-17T21:52:51.005Z,99142.79
2019-01-17T21:55:20.744Z,99148.44
2019-01-17T21:57:50.438Z,99145.97
2019-01-17T22:00:22.248Z,99145.55
2019-01-17T22:02:51.905Z,99138.17
2019-01-17T22:05:27.537Z,99142.29
2019-01-17T22:07:57.284Z,99135.44
2019-01-17T22:10:29.319Z,99136.58
2019-01-17T22:12:58.939Z,99134.67
2019-01-17T22:15:31.066Z,99132.84
2019-01-17T22:18:00.694Z,99130.34
2019-01-17T22:20:30.453Z,99132.32
2019-01-17T22:23:08.943Z,99131.77
2019-01-17T22:25:38.637Z,99130.23
2019-01-17T22:28:08.269Z,99124.95
2019-01-17T22:30:37.942Z,99119.81
2019-01-17T22:33:07.585Z,99123.26
2019-01-17T22:35:37.229Z,99127.68
2019-01-17T22:38:06.921Z,99122.13
2019-01-17T22:40:38.666Z,99122.38
2019-01-17T22:43:08.400Z,99119.69
2019-01-17T22:45:54.055Z,99123.13
2019-01-17T22:48:27.247Z,99125.79
2019-01-17T22:51:04.752Z,99118.29
2019-01-17T22:53:34.545Z,99118.86
2019-01-17T22:56:04.342Z,99119.36
2019-01-17T22:58:33.997Z,99113.89
2019-01-17T23:01:17.870Z,99107.86
2019-01-17T23:03:48.560Z,99106.41
2019-01-17T23:06:18.183Z,99108.57
2019-01-17T23:08:47.836Z,99118.66
2019-01-17T23:11:17.993Z,99112.45
2019-01-17T23:13:47.801Z,99116.05
2019-01-17T23:16:17.476Z,99112.10
2019-01-17T23:18:47.491Z,99113.12
2019-01-17T23:21:17.118Z,99121.04
2019-01-17T23:23:46.879Z,99116.87
2019-01-17T23:26:16.509Z,99113.70
2019-01-17T23:28:46.819Z,99113.52
2019-01-17T23:34:07.528Z,99113.11
2019-01-17T23:36:37.145Z,99114.05
2019-01-17T23:39:10.610Z,99111.23
2019-01-17T23:41:40.491Z,99112.59
2019-01-17T23:44:10.135Z,99110.36
2019-01-17T23:46:39.796Z,99108.55
2019-01-17T23:49:10.272Z,99108.45
2019-01-17T23:51:39.867Z,99108.96
2019-01-17T23:54:09.586Z,99114.70
2019-01-17T23:56:39.194Z,99102.97
2019-01-17T23:59:08.810Z,99106.55
